sensor_id;sensor_type;location;lat;lon;timestamp;P1;durP1;ratioP1;P2;durP2;ratioP2
51238;SDS011;38154;47.548;18.828;2023-07-31T00:00:14;4.80;;;2.35;;
51238;SDS011;38154;47.548;18.828;2023-07-31T00:02:41;5.10;;;2.40;;
51238;SDS011;38154;47.548;18.828;2023-07-31T00:05:08;4.97;;;2.22;;
51238;SDS011;38154;47.548;18.828;2023-07-31T00:07:34;3.47;;;2.22;;
51238;SDS011;38154;47.548;18.828;2023-07-31T00:10:00;3.08;;;1.95;;
51238;SDS011;38154;47.548;18.828;2023-07-31T00:12:26;2.90;;;2.40;;
51238;SDS011;38154;47.548;18.828;2023-07-31T00:14:52;8.52;;;2.55;;
51238;SDS011;38154;47.548;18.828;2023-07-31T00:17:18;5.20;;;2.60;;
51238;SDS011;38154;47.548;18.828;2023-07-31T00:19:44;4.22;;;2.40;;
51238;SDS011;38154;47.548;18.828;2023-07-31T00:22:11;5.55;;;2.05;;
51238;SDS011;38154;47.548;18.828;2023-07-31T00:24:37;3.17;;;2.00;;
51238;SDS011;38154;47.548;18.828;2023-07-31T00:27:03;4.03;;;2.42;;
51238;SDS011;38154;47.548;18.828;2023-07-31T00:29:30;2.85;;;2.15;;
51238;SDS011;38154;47.548;18.828;2023-07-31T00:31:56;4.20;;;2.12;;
51238;SDS011;38154;47.548;18.828;2023-07-31T00:34:22;5.18;;;2.28;;
51238;SDS011;38154;47.548;18.828;2023-07-31T00:36:48;3.65;;;2.60;;
51238;SDS011;38154;47.548;18.828;2023-07-31T00:39:13;5.65;;;1.92;;
51238;SDS011;38154;47.548;18.828;2023-07-31T00:41:39;3.30;;;2.65;;
51238;SDS011;38154;47.548;18.828;2023-07-31T00:44:05;3.08;;;2.33;;
51238;SDS011;38154;47.548;18.828;2023-07-31T00:46:31;3.95;;;2.30;;
51238;SDS011;38154;47.548;18.828;2023-07-31T00:48:57;6.20;;;2.67;;
51238;SDS011;38154;47.548;18.828;2023-07-31T00:51:23;4.00;;;2.33;;
51238;SDS011;38154;47.548;18.828;2023-07-31T00:53:49;4.82;;;2.53;;
51238;SDS011;38154;47.548;18.828;2023-07-31T00:56:15;2.87;;;2.40;;
51238;SDS011;38154;47.548;18.828;2023-07-31T01:01:07;5.28;;;2.97;;
51238;SDS011;38154;47.548;18.828;2023-07-31T01:03:33;5.67;;;2.57;;
51238;SDS011;38154;47.548;18.828;2023-07-31T01:08:44;6.78;;;3.33;;
51238;SDS011;38154;47.548;18.828;2023-07-31T01:11:25;2.30;;;1.90;;
51238;SDS011;38154;47.548;18.828;2023-07-31T01:13:54;3.83;;;2.37;;
51238;SDS011;38154;47.548;18.828;2023-07-31T01:16:21;3.25;;;2.15;;
51238;SDS011;38154;47.548;18.828;2023-07-31T01:18:46;3.25;;;2.42;;
51238;SDS011;38154;47.548;18.828;2023-07-31T01:26:45;5.80;;;2.60;;
51238;SDS011;38154;47.548;18.828;2023-07-31T01:31:51;3.28;;;2.30;;
51238;SDS011;38154;47.548;18.828;2023-07-31T01:34:20;2.87;;;2.05;;
51238;SDS011;38154;47.548;18.828;2023-07-31T01:36:47;3.62;;;2.45;;
51238;SDS011;38154;47.548;18.828;2023-07-31T01:39:13;3.30;;;2.62;;
51238;SDS011;38154;47.548;18.828;2023-07-31T01:41:41;2.53;;;1.85;;
51238;SDS011;38154;47.548;18.828;2023-07-31T01:44:06;3.35;;;2.17;;
51238;SDS011;38154;47.548;18.828;2023-07-31T01:46:32;2.50;;;2.00;;
51238;SDS011;38154;47.548;18.828;2023-07-31T01:48:58;2.70;;;2.05;;
51238;SDS011;38154;47.548;18.828;2023-07-31T01:51:24;3.42;;;2.03;;
51238;SDS011;38154;47.548;18.828;2023-07-31T01:53:50;5.37;;;2.22;;
51238;SDS011;38154;47.548;18.828;2023-07-31T01:56:16;4.28;;;1.90;;
51238;SDS011;38154;47.548;18.828;2023-07-31T01:58:42;2.83;;;1.70;;
51238;SDS011;38154;47.548;18.828;2023-07-31T02:01:08;4.62;;;2.28;;
51238;SDS011;38154;47.548;18.828;2023-07-31T02:03:34;2.57;;;2.00;;
51238;SDS011;38154;47.548;18.828;2023-07-31T02:06:00;2.17;;;1.80;;
51238;SDS011;38154;47.548;18.828;2023-07-31T02:08:26;2.17;;;1.52;;
51238;SDS011;38154;47.548;18.828;2023-07-31T02:10:51;1.73;;;1.57;;
51238;SDS011;38154;47.548;18.828;2023-07-31T02:13:17;4.20;;;2.37;;
51238;SDS011;38154;47.548;18.828;2023-07-31T02:15:44;2.00;;;1.57;;
51238;SDS011;38154;47.548;18.828;2023-07-31T02:18:11;2.37;;;1.65;;
51238;SDS011;38154;47.548;18.828;2023-07-31T02:20:36;1.87;;;1.58;;
51238;SDS011;38154;47.548;18.828;2023-07-31T02:23:02;4.90;;;2.92;;
51238;SDS011;38154;47.548;18.828;2023-07-31T02:25:28;2.25;;;1.70;;
51238;SDS011;38154;47.548;18.828;2023-07-31T02:27:54;1.95;;;1.52;;
51238;SDS011;38154;47.548;18.828;2023-07-31T02:30:20;1.95;;;1.50;;
51238;SDS011;38154;47.548;18.828;2023-07-31T02:32:46;3.20;;;1.77;;
51238;SDS011;38154;47.548;18.828;2023-07-31T02:35:12;2.65;;;1.73;;
51238;SDS011;38154;47.548;18.828;2023-07-31T02:37:41;5.15;;;1.80;;
51238;SDS011;38154;47.548;18.828;2023-07-31T02:40:08;2.35;;;1.65;;
51238;SDS011;38154;47.548;18.828;2023-07-31T02:42:34;1.52;;;1.20;;
51238;SDS011;38154;47.548;18.828;2023-07-31T02:45:00;1.60;;;1.47;;
51238;SDS011;38154;47.548;18.828;2023-07-31T02:47:25;3.27;;;1.47;;
51238;SDS011;38154;47.548;18.828;2023-07-31T02:49:51;3.33;;;1.57;;
51238;SDS011;38154;47.548;18.828;2023-07-31T02:52:17;2.27;;;1.27;;
51238;SDS011;38154;47.548;18.828;2023-07-31T02:54:43;1.92;;;1.55;;
51238;SDS011;38154;47.548;18.828;2023-07-31T02:57:09;3.10;;;1.83;;
51238;SDS011;38154;47.548;18.828;2023-07-31T02:59:35;3.97;;;2.43;;
51238;SDS011;38154;47.548;18.828;2023-07-31T03:02:01;2.22;;;1.23;;
51238;SDS011;38154;47.548;18.828;2023-07-31T03:04:26;3.53;;;1.58;;
51238;SDS011;38154;47.548;18.828;2023-07-31T03:06:52;1.30;;;1.20;;
51238;SDS011;38154;47.548;18.828;2023-07-31T03:09:18;2.23;;;1.43;;
51238;SDS011;38154;47.548;18.828;2023-07-31T03:11:44;2.30;;;1.50;;
51238;SDS011;38154;47.548;18.828;2023-07-31T03:14:10;2.55;;;1.60;;
51238;SDS011;38154;47.548;18.828;2023-07-31T03:16:36;2.63;;;1.47;;
51238;SDS011;38154;47.548;18.828;2023-07-31T03:19:02;2.20;;;1.40;;
51238;SDS011;38154;47.548;18.828;2023-07-31T03:21:28;2.80;;;1.50;;
51238;SDS011;38154;47.548;18.828;2023-07-31T03:23:53;1.50;;;1.20;;
51238;SDS011;38154;47.548;18.828;2023-07-31T03:26:19;1.90;;;1.40;;
51238;SDS011;38154;47.548;18.828;2023-07-31T03:28:45;2.08;;;1.90;;
51238;SDS011;38154;47.548;18.828;2023-07-31T03:31:11;3.12;;;1.85;;
51238;SDS011;38154;47.548;18.828;2023-07-31T03:33:37;2.47;;;1.60;;
51238;SDS011;38154;47.548;18.828;2023-07-31T03:36:03;2.03;;;1.50;;
51238;SDS011;38154;47.548;18.828;2023-07-31T03:38:29;2.92;;;1.85;;
51238;SDS011;38154;47.548;18.828;2023-07-31T03:40:55;2.40;;;1.17;;
51238;SDS011;38154;47.548;18.828;2023-07-31T03:43:21;1.83;;;1.60;;
51238;SDS011;38154;47.548;18.828;2023-07-31T03:45:47;1.40;;;1.30;;
51238;SDS011;38154;47.548;18.828;2023-07-31T03:48:13;3.30;;;1.30;;
51238;SDS011;38154;47.548;18.828;2023-07-31T03:50:39;1.80;;;1.58;;
51238;SDS011;38154;47.548;18.828;2023-07-31T03:53:05;1.97;;;1.00;;
51238;SDS011;38154;47.548;18.828;2023-07-31T03:55:31;2.65;;;1.33;;
51238;SDS011;38154;47.548;18.828;2023-07-31T03:57:57;1.40;;;1.30;;
51238;SDS011;38154;47.548;18.828;2023-07-31T04:00:23;1.62;;;1.50;;
51238;SDS011;38154;47.548;18.828;2023-07-31T04:02:52;1.75;;;1.10;;
51238;SDS011;38154;47.548;18.828;2023-07-31T04:05:18;2.20;;;1.52;;
51238;SDS011;38154;47.548;18.828;2023-07-31T04:07:44;1.52;;;1.42;;
51238;SDS011;38154;47.548;18.828;2023-07-31T04:10:10;2.03;;;1.05;;
51238;SDS011;38154;47.548;18.828;2023-07-31T04:12:36;1.48;;;1.30;;
51238;SDS011;38154;47.548;18.828;2023-07-31T04:15:02;8.13;;;1.40;;
51238;SDS011;38154;47.548;18.828;2023-07-31T04:17:28;2.90;;;1.27;;
51238;SDS011;38154;47.548;18.828;2023-07-31T04:19:53;1.65;;;1.25;;
51238;SDS011;38154;47.548;18.828;2023-07-31T04:22:19;3.72;;;1.35;;
51238;SDS011;38154;47.548;18.828;2023-07-31T04:24:45;2.33;;;1.67;;
51238;SDS011;38154;47.548;18.828;2023-07-31T04:27:11;2.05;;;1.73;;
51238;SDS011;38154;47.548;18.828;2023-07-31T04:29:37;2.10;;;1.30;;
51238;SDS011;38154;47.548;18.828;2023-07-31T04:32:05;1.70;;;1.30;;
51238;SDS011;38154;47.548;18.828;2023-07-31T04:34:31;1.80;;;1.50;;
51238;SDS011;38154;47.548;18.828;2023-07-31T04:36:57;1.73;;;1.10;;
51238;SDS011;38154;47.548;18.828;2023-07-31T04:39:23;2.33;;;1.60;;
51238;SDS011;38154;47.548;18.828;2023-07-31T04:41:48;1.20;;;1.05;;
51238;SDS011;38154;47.548;18.828;2023-07-31T04:44:14;1.70;;;1.20;;
51238;SDS011;38154;47.548;18.828;2023-07-31T04:46:40;1.40;;;1.23;;
51238;SDS011;38154;47.548;18.828;2023-07-31T04:49:06;1.70;;;1.35;;
51238;SDS011;38154;47.548;18.828;2023-07-31T04:51:32;3.58;;;1.25;;
51238;SDS011;38154;47.548;18.828;2023-07-31T04:53:58;2.20;;;1.42;;
51238;SDS011;38154;47.548;18.828;2023-07-31T04:56:24;1.42;;;1.10;;
51238;SDS011;38154;47.548;18.828;2023-07-31T04:58:50;3.12;;;1.20;;
51238;SDS011;38154;47.548;18.828;2023-07-31T05:01:15;1.77;;;1.33;;
51238;SDS011;38154;47.548;18.828;2023-07-31T05:03:41;2.27;;;1.10;;
51238;SDS011;38154;47.548;18.828;2023-07-31T05:06:07;2.15;;;1.20;;
51238;SDS011;38154;47.548;18.828;2023-07-31T05:08:33;1.00;;;0.88;;
51238;SDS011;38154;47.548;18.828;2023-07-31T05:10:59;1.65;;;1.05;;
51238;SDS011;38154;47.548;18.828;2023-07-31T05:13:25;3.22;;;1.37;;
51238;SDS011;38154;47.548;18.828;2023-07-31T05:15:51;2.40;;;1.42;;
51238;SDS011;38154;47.548;18.828;2023-07-31T05:18:17;1.30;;;1.15;;
51238;SDS011;38154;47.548;18.828;2023-07-31T05:20:43;2.53;;;1.55;;
51238;SDS011;38154;47.548;18.828;2023-07-31T05:23:09;1.62;;;1.15;;
51238;SDS011;38154;47.548;18.828;2023-07-31T05:25:34;0.95;;;0.77;;
51238;SDS011;38154;47.548;18.828;2023-07-31T05:28:00;1.00;;;0.90;;
51238;SDS011;38154;47.548;18.828;2023-07-31T05:30:26;1.23;;;1.10;;
51238;SDS011;38154;47.548;18.828;2023-07-31T05:32:52;1.33;;;1.05;;
51238;SDS011;38154;47.548;18.828;2023-07-31T05:35:18;0.80;;;0.80;;
51238;SDS011;38154;47.548;18.828;2023-07-31T05:37:44;3.50;;;1.10;;
51238;SDS011;38154;47.548;18.828;2023-07-31T05:40:10;1.05;;;0.90;;
51238;SDS011;38154;47.548;18.828;2023-07-31T05:42:36;1.12;;;0.82;;
51238;SDS011;38154;47.548;18.828;2023-07-31T05:45:04;0.68;;;0.68;;
51238;SDS011;38154;47.548;18.828;2023-07-31T05:47:32;3.30;;;1.67;;
51238;SDS011;38154;47.548;18.828;2023-07-31T05:49:57;2.05;;;1.05;;
51238;SDS011;38154;47.548;18.828;2023-07-31T05:52:23;2.12;;;1.20;;
51238;SDS011;38154;47.548;18.828;2023-07-31T05:54:49;1.02;;;0.93;;
51238;SDS011;38154;47.548;18.828;2023-07-31T05:57:16;5.12;;;0.90;;
51238;SDS011;38154;47.548;18.828;2023-07-31T05:59:41;2.80;;;0.98;;
51238;SDS011;38154;47.548;18.828;2023-07-31T06:02:07;1.20;;;0.65;;
51238;SDS011;38154;47.548;18.828;2023-07-31T06:04:33;3.22;;;1.17;;
51238;SDS011;38154;47.548;18.828;2023-07-31T06:06:59;2.10;;;1.05;;
51238;SDS011;38154;47.548;18.828;2023-07-31T06:11:51;2.20;;;1.10;;
51238;SDS011;38154;47.548;18.828;2023-07-31T06:14:17;2.03;;;1.05;;
51238;SDS011;38154;47.548;18.828;2023-07-31T06:16:44;1.17;;;0.93;;
51238;SDS011;38154;47.548;18.828;2023-07-31T06:19:10;1.83;;;0.73;;
51238;SDS011;38154;47.548;18.828;2023-07-31T06:21:36;2.50;;;1.23;;
51238;SDS011;38154;47.548;18.828;2023-07-31T06:24:05;0.70;;;0.70;;
51238;SDS011;38154;47.548;18.828;2023-07-31T06:26:31;1.60;;;0.70;;
51238;SDS011;38154;47.548;18.828;2023-07-31T06:28:57;4.80;;;1.25;;
51238;SDS011;38154;47.548;18.828;2023-07-31T06:31:23;1.62;;;0.98;;
51238;SDS011;38154;47.548;18.828;2023-07-31T06:33:49;1.08;;;0.55;;
51238;SDS011;38154;47.548;18.828;2023-07-31T06:36:16;0.75;;;0.60;;
51238;SDS011;38154;47.548;18.828;2023-07-31T06:38:42;1.08;;;0.70;;
51238;SDS011;38154;47.548;18.828;2023-07-31T06:41:08;0.80;;;0.80;;
51238;SDS011;38154;47.548;18.828;2023-07-31T06:43:36;3.37;;;0.98;;
51238;SDS011;38154;47.548;18.828;2023-07-31T06:46:05;1.42;;;0.88;;
51238;SDS011;38154;47.548;18.828;2023-07-31T06:48:32;0.93;;;0.90;;
51238;SDS011;38154;47.548;18.828;2023-07-31T06:51:00;1.10;;;0.80;;
51238;SDS011;38154;47.548;18.828;2023-07-31T06:53:26;3.05;;;0.73;;
51238;SDS011;38154;47.548;18.828;2023-07-31T06:55:52;1.10;;;0.82;;
51238;SDS011;38154;47.548;18.828;2023-07-31T06:58:18;1.98;;;0.70;;
51238;SDS011;38154;47.548;18.828;2023-07-31T07:00:44;2.70;;;0.98;;
51238;SDS011;38154;47.548;18.828;2023-07-31T07:03:09;2.70;;;0.68;;
51238;SDS011;38154;47.548;18.828;2023-07-31T07:05:35;1.37;;;1.05;;
51238;SDS011;38154;47.548;18.828;2023-07-31T07:08:01;0.85;;;0.60;;
51238;SDS011;38154;47.548;18.828;2023-07-31T07:10:27;1.02;;;0.68;;
51238;SDS011;38154;47.548;18.828;2023-07-31T07:12:54;0.77;;;0.75;;
51238;SDS011;38154;47.548;18.828;2023-07-31T07:15:20;0.75;;;0.70;;
51238;SDS011;38154;47.548;18.828;2023-07-31T07:17:46;0.95;;;0.60;;
51238;SDS011;38154;47.548;18.828;2023-07-31T07:22:38;2.67;;;0.90;;
51238;SDS011;38154;47.548;18.828;2023-07-31T07:27:30;2.20;;;1.00;;
51238;SDS011;38154;47.548;18.828;2023-07-31T07:32:21;2.78;;;0.98;;
51238;SDS011;38154;47.548;18.828;2023-07-31T07:34:48;2.37;;;1.17;;
51238;SDS011;38154;47.548;18.828;2023-07-31T07:37:14;1.30;;;0.77;;
51238;SDS011;38154;47.548;18.828;2023-07-31T07:39:40;0.73;;;0.70;;
51238;SDS011;38154;47.548;18.828;2023-07-31T07:42:06;1.85;;;0.85;;
51238;SDS011;38154;47.548;18.828;2023-07-31T07:46:58;2.03;;;1.20;;
51238;SDS011;38154;47.548;18.828;2023-07-31T07:49:24;3.28;;;1.12;;
51238;SDS011;38154;47.548;18.828;2023-07-31T07:51:49;1.42;;;0.77;;
51238;SDS011;38154;47.548;18.828;2023-07-31T07:54:16;1.58;;;0.90;;
51238;SDS011;38154;47.548;18.828;2023-07-31T07:56:46;1.90;;;1.00;;
51238;SDS011;38154;47.548;18.828;2023-07-31T07:59:12;1.08;;;0.80;;
51238;SDS011;38154;47.548;18.828;2023-07-31T08:01:38;2.00;;;0.93;;
51238;SDS011;38154;47.548;18.828;2023-07-31T08:04:04;1.45;;;0.60;;
51238;SDS011;38154;47.548;18.828;2023-07-31T08:06:30;1.75;;;0.80;;
51238;SDS011;38154;47.548;18.828;2023-07-31T08:08:56;2.45;;;0.90;;
51238;SDS011;38154;47.548;18.828;2023-07-31T08:11:21;1.45;;;0.57;;
51238;SDS011;38154;47.548;18.828;2023-07-31T08:13:49;4.68;;;0.85;;
51238;SDS011;38154;47.548;18.828;2023-07-31T08:16:15;1.87;;;0.62;;
51238;SDS011;38154;47.548;18.828;2023-07-31T08:18:41;3.58;;;0.82;;
51238;SDS011;38154;47.548;18.828;2023-07-31T08:21:08;1.12;;;0.85;;
51238;SDS011;38154;47.548;18.828;2023-07-31T08:23:34;2.20;;;0.65;;
51238;SDS011;38154;47.548;18.828;2023-07-31T08:26:00;2.22;;;0.70;;
51238;SDS011;38154;47.548;18.828;2023-07-31T08:28:26;2.15;;;0.50;;
51238;SDS011;38154;47.548;18.828;2023-07-31T08:30:51;0.90;;;0.60;;
51238;SDS011;38154;47.548;18.828;2023-07-31T08:33:17;2.17;;;0.60;;
51238;SDS011;38154;47.548;18.828;2023-07-31T08:35:43;1.10;;;0.73;;
51238;SDS011;38154;47.548;18.828;2023-07-31T08:38:09;1.27;;;0.50;;
51238;SDS011;38154;47.548;18.828;2023-07-31T08:40:38;2.97;;;0.60;;
51238;SDS011;38154;47.548;18.828;2023-07-31T08:43:04;1.10;;;0.70;;
51238;SDS011;38154;47.548;18.828;2023-07-31T08:45:30;1.30;;;0.52;;
51238;SDS011;38154;47.548;18.828;2023-07-31T08:47:57;1.65;;;0.80;;
51238;SDS011;38154;47.548;18.828;2023-07-31T08:50:24;1.23;;;0.80;;
51238;SDS011;38154;47.548;18.828;2023-07-31T08:52:50;1.60;;;0.60;;
51238;SDS011;38154;47.548;18.828;2023-07-31T08:55:17;1.20;;;0.68;;
51238;SDS011;38154;47.548;18.828;2023-07-31T08:57:49;1.67;;;0.60;;
51238;SDS011;38154;47.548;18.828;2023-07-31T09:00:16;0.50;;;0.50;;
51238;SDS011;38154;47.548;18.828;2023-07-31T09:02:46;2.47;;;0.95;;
51238;SDS011;38154;47.548;18.828;2023-07-31T09:05:17;2.23;;;0.90;;
51238;SDS011;38154;47.548;18.828;2023-07-31T09:07:45;1.08;;;0.62;;
51238;SDS011;38154;47.548;18.828;2023-07-31T09:10:13;2.50;;;0.80;;
51238;SDS011;38154;47.548;18.828;2023-07-31T09:12:39;0.88;;;0.60;;
51238;SDS011;38154;47.548;18.828;2023-07-31T09:15:06;2.53;;;0.68;;
51238;SDS011;38154;47.548;18.828;2023-07-31T09:17:36;3.08;;;0.93;;
51238;SDS011;38154;47.548;18.828;2023-07-31T09:20:21;2.17;;;0.68;;
51238;SDS011;38154;47.548;18.828;2023-07-31T09:22:48;1.35;;;1.02;;
51238;SDS011;38154;47.548;18.828;2023-07-31T09:30:13;3.35;;;0.70;;
51238;SDS011;38154;47.548;18.828;2023-07-31T09:32:39;0.95;;;0.60;;
51238;SDS011;38154;47.548;18.828;2023-07-31T09:35:39;1.83;;;0.75;;
51238;SDS011;38154;47.548;18.828;2023-07-31T09:37:59;2.70;;;0.60;;
51238;SDS011;38154;47.548;18.828;2023-07-31T09:40:31;0.93;;;0.65;;
51238;SDS011;38154;47.548;18.828;2023-07-31T09:43:00;4.15;;;0.70;;
51238;SDS011;38154;47.548;18.828;2023-07-31T09:45:27;0.90;;;0.60;;
51238;SDS011;38154;47.548;18.828;2023-07-31T09:47:54;2.58;;;0.68;;
51238;SDS011;38154;47.548;18.828;2023-07-31T09:50:21;2.30;;;0.60;;
51238;SDS011;38154;47.548;18.828;2023-07-31T09:52:48;3.55;;;0.60;;
51238;SDS011;38154;47.548;18.828;2023-07-31T09:55:14;0.98;;;0.55;;
51238;SDS011;38154;47.548;18.828;2023-07-31T09:57:42;0.73;;;0.50;;
51238;SDS011;38154;47.548;18.828;2023-07-31T10:00:09;2.83;;;0.80;;
51238;SDS011;38154;47.548;18.828;2023-07-31T10:02:37;0.70;;;0.50;;
51238;SDS011;38154;47.548;18.828;2023-07-31T10:05:04;1.95;;;0.60;;
51238;SDS011;38154;47.548;18.828;2023-07-31T10:07:34;2.53;;;0.50;;
51238;SDS011;38154;47.548;18.828;2023-07-31T10:10:03;0.90;;;0.50;;
51238;SDS011;38154;47.548;18.828;2023-07-31T10:12:31;5.62;;;0.73;;
51238;SDS011;38154;47.548;18.828;2023-07-31T10:14:59;2.05;;;0.65;;
51238;SDS011;38154;47.548;18.828;2023-07-31T10:17:25;1.17;;;0.68;;
51238;SDS011;38154;47.548;18.828;2023-07-31T10:19:52;1.40;;;0.95;;
51238;SDS011;38154;47.548;18.828;2023-07-31T10:22:19;1.15;;;0.68;;
51238;SDS011;38154;47.548;18.828;2023-07-31T10:24:46;1.52;;;0.55;;
51238;SDS011;38154;47.548;18.828;2023-07-31T10:27:13;1.20;;;0.50;;
51238;SDS011;38154;47.548;18.828;2023-07-31T10:29:40;0.80;;;0.60;;
51238;SDS011;38154;47.548;18.828;2023-07-31T10:32:09;1.98;;;0.90;;
51238;SDS011;38154;47.548;18.828;2023-07-31T10:34:38;1.52;;;0.50;;
51238;SDS011;38154;47.548;18.828;2023-07-31T10:37:21;0.65;;;0.45;;
51238;SDS011;38154;47.548;18.828;2023-07-31T10:45:15;0.45;;;0.40;;
51238;SDS011;38154;47.548;18.828;2023-07-31T10:48:02;2.40;;;0.52;;
51238;SDS011;38154;47.548;18.828;2023-07-31T10:50:54;2.37;;;0.60;;
51238;SDS011;38154;47.548;18.828;2023-07-31T10:53:24;7.07;;;0.70;;
51238;SDS011;38154;47.548;18.828;2023-07-31T10:55:51;1.35;;;0.57;;
51238;SDS011;38154;47.548;18.828;2023-07-31T10:58:18;2.53;;;0.43;;
51238;SDS011;38154;47.548;18.828;2023-07-31T11:00:46;1.23;;;0.40;;
51238;SDS011;38154;47.548;18.828;2023-07-31T11:10:40;1.30;;;0.70;;
51238;SDS011;38154;47.548;18.828;2023-07-31T11:13:06;0.40;;;0.40;;
51238;SDS011;38154;47.548;18.828;2023-07-31T11:15:32;0.73;;;0.35;;
51238;SDS011;38154;47.548;18.828;2023-07-31T11:17:59;1.10;;;0.50;;
51238;SDS011;38154;47.548;18.828;2023-07-31T11:20:32;0.88;;;0.60;;
51238;SDS011;38154;47.548;18.828;2023-07-31T11:22:59;3.00;;;0.65;;
51238;SDS011;38154;47.548;18.828;2023-07-31T11:25:28;2.55;;;0.85;;
51238;SDS011;38154;47.548;18.828;2023-07-31T11:27:56;2.67;;;0.68;;
51238;SDS011;38154;47.548;18.828;2023-07-31T11:30:21;1.67;;;0.43;;
51238;SDS011;38154;47.548;18.828;2023-07-31T11:32:47;2.45;;;0.60;;
51238;SDS011;38154;47.548;18.828;2023-07-31T11:35:14;2.10;;;0.60;;
51238;SDS011;38154;47.548;18.828;2023-07-31T11:37:43;0.88;;;0.45;;
51238;SDS011;38154;47.548;18.828;2023-07-31T11:40:10;2.25;;;0.40;;
51238;SDS011;38154;47.548;18.828;2023-07-31T11:42:36;1.85;;;0.35;;
51238;SDS011;38154;47.548;18.828;2023-07-31T11:45:06;4.12;;;0.80;;
51238;SDS011;38154;47.548;18.828;2023-07-31T11:47:34;1.45;;;0.55;;
51238;SDS011;38154;47.548;18.828;2023-07-31T11:50:01;1.10;;;0.30;;
51238;SDS011;38154;47.548;18.828;2023-07-31T11:52:32;0.50;;;0.50;;
51238;SDS011;38154;47.548;18.828;2023-07-31T11:55:03;0.90;;;0.55;;
51238;SDS011;38154;47.548;18.828;2023-07-31T11:57:31;0.40;;;0.30;;
51238;SDS011;38154;47.548;18.828;2023-07-31T11:59:58;1.33;;;0.70;;
51238;SDS011;38154;47.548;18.828;2023-07-31T12:02:24;0.90;;;0.55;;
51238;SDS011;38154;47.548;18.828;2023-07-31T12:04:50;1.50;;;0.70;;
51238;SDS011;38154;47.548;18.828;2023-07-31T12:07:16;0.62;;;0.60;;
51238;SDS011;38154;47.548;18.828;2023-07-31T12:12:21;0.93;;;0.50;;
51238;SDS011;38154;47.548;18.828;2023-07-31T12:14:47;1.55;;;0.70;;
51238;SDS011;38154;47.548;18.828;2023-07-31T12:17:14;2.45;;;0.45;;
51238;SDS011;38154;47.548;18.828;2023-07-31T12:22:12;1.10;;;0.50;;
51238;SDS011;38154;47.548;18.828;2023-07-31T12:24:39;1.25;;;0.88;;
51238;SDS011;38154;47.548;18.828;2023-07-31T12:27:12;1.25;;;0.75;;
51238;SDS011;38154;47.548;18.828;2023-07-31T12:29:39;0.70;;;0.60;;
51238;SDS011;38154;47.548;18.828;2023-07-31T12:32:25;1.12;;;0.62;;
51238;SDS011;38154;47.548;18.828;2023-07-31T12:34:54;1.20;;;0.52;;
51238;SDS011;38154;47.548;18.828;2023-07-31T12:39:48;1.37;;;0.80;;
51238;SDS011;38154;47.548;18.828;2023-07-31T12:42:17;1.60;;;0.52;;
51238;SDS011;38154;47.548;18.828;2023-07-31T12:44:43;0.88;;;0.65;;
51238;SDS011;38154;47.548;18.828;2023-07-31T12:49:34;1.48;;;0.85;;
51238;SDS011;38154;47.548;18.828;2023-07-31T12:54:26;4.12;;;0.80;;
51238;SDS011;38154;47.548;18.828;2023-07-31T12:59:17;1.10;;;0.60;;
51238;SDS011;38154;47.548;18.828;2023-07-31T13:01:43;1.62;;;0.73;;
51238;SDS011;38154;47.548;18.828;2023-07-31T13:04:09;3.85;;;1.05;;
51238;SDS011;38154;47.548;18.828;2023-07-31T13:06:35;2.17;;;0.85;;
51238;SDS011;38154;47.548;18.828;2023-07-31T13:09:01;1.20;;;0.52;;
51238;SDS011;38154;47.548;18.828;2023-07-31T13:11:27;1.20;;;0.77;;
51238;SDS011;38154;47.548;18.828;2023-07-31T13:13:53;0.85;;;0.80;;
51238;SDS011;38154;47.548;18.828;2023-07-31T13:16:19;1.77;;;0.70;;
51238;SDS011;38154;47.548;18.828;2023-07-31T13:18:45;0.50;;;0.50;;
51238;SDS011;38154;47.548;18.828;2023-07-31T13:21:10;2.00;;;0.90;;
51238;SDS011;38154;47.548;18.828;2023-07-31T13:23:36;2.42;;;0.80;;
51238;SDS011;38154;47.548;18.828;2023-07-31T13:26:02;1.30;;;0.82;;
51238;SDS011;38154;47.548;18.828;2023-07-31T13:28:28;1.35;;;0.50;;
51238;SDS011;38154;47.548;18.828;2023-07-31T13:30:54;4.22;;;0.80;;
51238;SDS011;38154;47.548;18.828;2023-07-31T13:33:20;1.17;;;0.70;;
51238;SDS011;38154;47.548;18.828;2023-07-31T13:35:46;0.98;;;0.70;;
51238;SDS011;38154;47.548;18.828;2023-07-31T13:38:11;1.70;;;0.60;;
51238;SDS011;38154;47.548;18.828;2023-07-31T13:40:37;1.40;;;0.75;;
51238;SDS011;38154;47.548;18.828;2023-07-31T13:43:03;1.23;;;0.60;;
51238;SDS011;38154;47.548;18.828;2023-07-31T13:45:29;2.53;;;0.65;;
51238;SDS011;38154;47.548;18.828;2023-07-31T13:47:55;1.12;;;0.73;;
51238;SDS011;38154;47.548;18.828;2023-07-31T13:50:21;3.17;;;1.25;;
51238;SDS011;38154;47.548;18.828;2023-07-31T13:52:48;3.05;;;0.80;;
51238;SDS011;38154;47.548;18.828;2023-07-31T13:55:14;2.15;;;0.80;;
51238;SDS011;38154;47.548;18.828;2023-07-31T13:57:41;1.75;;;0.98;;
51238;SDS011;38154;47.548;18.828;2023-07-31T14:00:07;0.57;;;0.57;;
51238;SDS011;38154;47.548;18.828;2023-07-31T14:02:33;0.73;;;0.68;;
51238;SDS011;38154;47.548;18.828;2023-07-31T14:04:59;1.02;;;0.55;;
51238;SDS011;38154;47.548;18.828;2023-07-31T14:07:25;0.80;;;0.45;;
51238;SDS011;38154;47.548;18.828;2023-07-31T14:09:51;0.90;;;0.77;;
51238;SDS011;38154;47.548;18.828;2023-07-31T14:12:17;3.05;;;0.73;;
51238;SDS011;38154;47.548;18.828;2023-07-31T14:14:43;1.52;;;0.60;;
51238;SDS011;38154;47.548;18.828;2023-07-31T14:17:09;1.98;;;0.75;;
51238;SDS011;38154;47.548;18.828;2023-07-31T14:19:35;1.75;;;0.90;;
51238;SDS011;38154;47.548;18.828;2023-07-31T14:22:01;0.62;;;0.60;;
51238;SDS011;38154;47.548;18.828;2023-07-31T14:24:27;5.78;;;1.00;;
51238;SDS011;38154;47.548;18.828;2023-07-31T14:26:53;2.85;;;1.00;;
51238;SDS011;38154;47.548;18.828;2023-07-31T14:29:19;1.52;;;0.70;;
51238;SDS011;38154;47.548;18.828;2023-07-31T14:31:44;3.75;;;0.82;;
51238;SDS011;38154;47.548;18.828;2023-07-31T14:34:10;1.33;;;0.77;;
51238;SDS011;38154;47.548;18.828;2023-07-31T14:36:36;0.90;;;0.70;;
51238;SDS011;38154;47.548;18.828;2023-07-31T14:39:02;1.00;;;0.60;;
51238;SDS011;38154;47.548;18.828;2023-07-31T14:41:28;3.65;;;0.70;;
51238;SDS011;38154;47.548;18.828;2023-07-31T14:43:54;0.70;;;0.50;;
51238;SDS011;38154;47.548;18.828;2023-07-31T14:46:20;2.22;;;0.70;;
51238;SDS011;38154;47.548;18.828;2023-07-31T14:48:46;2.47;;;0.90;;
51238;SDS011;38154;47.548;18.828;2023-07-31T14:51:11;0.70;;;0.70;;
51238;SDS011;38154;47.548;18.828;2023-07-31T14:53:39;2.35;;;0.80;;
51238;SDS011;38154;47.548;18.828;2023-07-31T14:56:05;1.48;;;0.73;;
51238;SDS011;38154;47.548;18.828;2023-07-31T14:58:31;1.23;;;0.52;;
51238;SDS011;38154;47.548;18.828;2023-07-31T15:00:57;0.50;;;0.50;;
51238;SDS011;38154;47.548;18.828;2023-07-31T15:03:23;0.98;;;0.65;;
51238;SDS011;38154;47.548;18.828;2023-07-31T15:05:50;1.58;;;0.73;;
51238;SDS011;38154;47.548;18.828;2023-07-31T15:08:16;5.00;;;1.30;;
51238;SDS011;38154;47.548;18.828;2023-07-31T15:10:42;0.57;;;0.50;;
51238;SDS011;38154;47.548;18.828;2023-07-31T15:13:08;0.88;;;0.77;;
51238;SDS011;38154;47.548;18.828;2023-07-31T15:15:34;1.48;;;0.65;;
51238;SDS011;38154;47.548;18.828;2023-07-31T15:18:00;0.68;;;0.50;;
51238;SDS011;38154;47.548;18.828;2023-07-31T15:20:25;1.60;;;0.95;;
51238;SDS011;38154;47.548;18.828;2023-07-31T15:22:51;6.28;;;1.00;;
51238;SDS011;38154;47.548;18.828;2023-07-31T15:25:17;2.22;;;0.60;;
51238;SDS011;38154;47.548;18.828;2023-07-31T15:27:43;2.05;;;0.80;;